createdAt,value
2022-11-21T00:02:13.996Z,56.83
2022-11-21T00:04:42.318Z,57.30
2022-11-21T00:07:10.968Z,57.55
2022-11-21T00:09:39.487Z,58.09
2022-11-21T00:12:09.210Z,58.75
2022-11-21T00:14:37.617Z,59.34
2022-11-21T00:17:06.053Z,59.95
2022-11-21T00:19:34.232Z,60.62
2022-11-21T00:22:02.510Z,61.37
2022-11-21T00:24:30.895Z,65.77
2022-11-21T00:26:59.365Z,75.34
2022-11-21T00:29:28.571Z,70.11
2022-11-21T00:31:57.050Z,63.87
2022-11-21T00:34:25.478Z,57.21
2022-11-21T00:36:53.911Z,53.99
2022-11-21T00:39:22.182Z,54.39
2022-11-21T00:41:50.339Z,55.13
2022-11-21T00:44:18.504Z,55.68
2022-11-21T00:46:46.916Z,56.35
2022-11-21T00:49:15.165Z,56.51
2022-11-21T00:51:43.577Z,57.07
2022-11-21T00:54:11.978Z,57.89
2022-11-21T00:56:40.666Z,58.65
2022-11-21T00:59:09.135Z,59.80
2022-11-21T01:01:37.518Z,61.63
2022-11-21T01:04:05.887Z,66.26
2022-11-21T01:06:34.154Z,73.85
2022-11-21T01:09:02.629Z,68.62
2022-11-21T01:11:31.418Z,63.27
2022-11-21T01:13:59.658Z,58.71
2022-11-21T01:16:29.167Z,53.63
2022-11-21T01:18:58.393Z,53.64
2022-11-21T01:21:30.379Z,54.30
2022-11-21T01:24:03.354Z,54.75
2022-11-21T01:26:35.186Z,55.18
2022-11-21T01:29:04.399Z,55.72
2022-11-21T01:31:32.866Z,57.22
2022-11-21T01:34:02.129Z,58.01
2022-11-21T01:36:32.866Z,60.59
2022-11-21T01:39:05.231Z,64.97
2022-11-21T01:41:40.114Z,70.79
2022-11-21T01:44:22.029Z,66.14
2022-11-21T01:46:51.936Z,60.46
2022-11-21T01:49:23.291Z,53.68
2022-11-21T01:52:06.854Z,51.64
2022-11-21T01:55:00.185Z,52.20
2022-11-21T01:57:37.474Z,53.13
2022-11-21T02:00:11.384Z,54.24
2022-11-21T02:02:48.973Z,54.90
2022-11-21T02:05:22.251Z,55.93
2022-11-21T02:07:55.412Z,56.78
2022-11-21T02:10:24.219Z,57.51
2022-11-21T02:12:55.843Z,58.72
2022-11-21T02:15:27.990Z,60.48
2022-11-21T02:17:56.830Z,61.93
2022-11-21T02:20:28.319Z,66.95
2022-11-21T02:23:15.599Z,71.71
2022-11-21T02:25:44.306Z,65.99
2022-11-21T02:28:16.596Z,61.43
2022-11-21T02:30:45.059Z,55.86
2022-11-21T02:33:14.332Z,53.76
2022-11-21T02:35:42.905Z,53.96
2022-11-21T02:38:34.284Z,54.33
2022-11-21T02:41:09.979Z,55.08
2022-11-21T02:43:48.115Z,56.10
2022-11-21T02:46:16.502Z,57.11
2022-11-21T02:48:45.294Z,58.59
2022-11-21T02:51:13.907Z,59.54
2022-11-21T02:53:42.249Z,60.71
2022-11-21T02:56:10.728Z,65.36
2022-11-21T02:58:39.526Z,72.15
2022-11-21T03:01:08.128Z,69.01
2022-11-21T03:03:36.422Z,63.60
2022-11-21T03:06:04.799Z,56.30
2022-11-21T03:08:33.250Z,53.38
2022-11-21T03:11:01.551Z,53.45
2022-11-21T03:13:29.901Z,55.20
2022-11-21T03:15:59.720Z,55.97
2022-11-21T03:18:28.070Z,57.42
2022-11-21T03:20:58.250Z,58.92
2022-11-21T03:23:26.825Z,60.63
2022-11-21T03:25:55.199Z,61.41
2022-11-21T03:28:23.415Z,65.00
2022-11-21T03:30:51.901Z,67.96
2022-11-21T03:33:20.285Z,67.58
2022-11-21T03:35:49.572Z,65.58
2022-11-21T03:38:18.475Z,62.33
2022-11-21T03:40:46.940Z,57.09
2022-11-21T03:43:15.501Z,54.88
2022-11-21T03:45:48.315Z,55.72
2022-11-21T03:48:16.785Z,58.02
2022-11-21T03:50:45.279Z,59.28
2022-11-21T03:53:13.688Z,61.30
2022-11-21T03:55:43.142Z,65.00
2022-11-21T03:58:11.934Z,68.78
2022-11-21T04:00:40.725Z,66.19
2022-11-21T04:03:09.196Z,61.27
2022-11-21T04:05:37.578Z,55.53
2022-11-21T04:08:06.041Z,53.24
2022-11-21T04:10:34.377Z,53.78
2022-11-21T04:13:04.390Z,55.21
2022-11-21T04:15:32.721Z,57.23
2022-11-21T04:18:01.070Z,59.24
2022-11-21T04:20:29.422Z,63.18
2022-11-21T04:22:57.897Z,68.03
2022-11-21T04:25:26.303Z,66.99
2022-11-21T04:27:59.591Z,64.49
2022-11-21T04:30:29.377Z,61.67
2022-11-21T04:32:57.975Z,56.20
2022-11-21T04:35:28.208Z,54.49
2022-11-21T04:37:57.130Z,55.96
2022-11-21T04:40:26.602Z,56.96
2022-11-21T04:42:55.605Z,58.63
2022-11-21T04:45:23.943Z,59.64
2022-11-21T04:47:52.471Z,64.03
2022-11-21T04:50:21.558Z,67.82
2022-11-21T04:52:57.486Z,63.84
2022-11-21T04:55:31.173Z,61.83
2022-11-21T04:58:00.730Z,62.42
2022-11-21T05:00:30.396Z,58.07
2022-11-21T05:03:04.356Z,54.37
2022-11-21T05:05:33.649Z,54.26
2022-11-21T05:08:02.802Z,55.34
2022-11-21T05:10:31.323Z,56.65
2022-11-21T05:13:19.261Z,57.47
2022-11-21T05:15:51.783Z,60.12
2022-11-21T05:18:20.510Z,64.70
2022-11-21T05:20:49.191Z,69.48
2022-11-21T05:23:18.819Z,66.81
2022-11-21T05:25:47.853Z,62.79
2022-11-21T05:28:16.602Z,60.01
2022-11-21T05:30:45.721Z,55.24
2022-11-21T05:33:14.614Z,53.24
2022-11-21T05:35:43.849Z,53.69
2022-11-21T05:38:13.917Z,54.44
2022-11-21T05:40:42.673Z,56.56
2022-11-21T05:43:32.267Z,60.25
2022-11-21T05:46:01.217Z,61.41
2022-11-21T05:48:29.554Z,66.00
2022-11-21T05:50:58.567Z,66.47
2022-11-21T05:53:27.229Z,66.42
2022-11-21T05:55:55.932Z,63.75
2022-11-21T05:58:24.408Z,57.19
2022-11-21T06:00:59.896Z,53.51
2022-11-21T06:03:33.206Z,53.53
2022-11-21T06:06:13.211Z,54.26
2022-11-21T06:08:43.820Z,55.37
2022-11-21T06:11:14.855Z,57.91
2022-11-21T06:13:43.852Z,59.62
2022-11-21T06:16:14.894Z,62.01
2022-11-21T06:18:46.036Z,65.70
2022-11-21T06:21:17.407Z,69.32
2022-11-21T06:23:46.989Z,67.20
2022-11-21T06:26:18.220Z,63.52
2022-11-21T06:28:48.890Z,60.89
2022-11-21T06:31:20.413Z,56.16
2022-11-21T06:33:53.714Z,53.62
2022-11-21T06:36:22.702Z,53.91
2022-11-21T06:38:54.796Z,54.92
2022-11-21T06:41:26.276Z,56.47
2022-11-21T06:43:54.683Z,57.76
2022-11-21T06:46:23.279Z,60.13
2022-11-21T06:48:52.251Z,60.62
2022-11-21T06:51:23.864Z,63.53
2022-11-21T06:53:57.935Z,68.05
2022-11-21T06:56:28.541Z,67.21
2022-11-21T06:58:57.642Z,65.69
2022-11-21T07:01:26.865Z,61.70
2022-11-21T07:03:55.997Z,55.89
2022-11-21T07:06:25.028Z,54.06
2022-11-21T07:11:45.400Z,54.42
2022-11-21T07:14:13.783Z,56.15
2022-11-21T07:16:42.448Z,56.95
2022-11-21T07:19:12.016Z,57.79
2022-11-21T07:21:44.122Z,59.35
2022-11-21T07:24:13.787Z,64.29
2022-11-21T07:26:43.564Z,69.03
2022-11-21T07:29:13.121Z,66.34
2022-11-21T07:31:42.218Z,63.56
2022-11-21T07:34:11.651Z,61.96
2022-11-21T07:36:40.122Z,60.91
2022-11-21T07:39:10.436Z,58.51
2022-11-21T07:41:39.532Z,55.87
2022-11-21T07:44:08.041Z,55.70
2022-11-21T07:46:36.814Z,56.09
2022-11-21T07:49:06.003Z,57.42
2022-11-21T07:51:35.086Z,58.95
2022-11-21T07:54:04.067Z,59.97
2022-11-21T07:56:33.081Z,63.22
2022-11-21T07:59:02.487Z,65.86
2022-11-21T08:01:32.634Z,64.69
2022-11-21T08:04:01.273Z,63.78
2022-11-21T08:06:29.627Z,65.20
2022-11-21T08:08:58.188Z,67.37
2022-11-21T08:11:27.176Z,63.11
2022-11-21T08:13:56.339Z,58.28
2022-11-21T08:16:28.609Z,55.17
2022-11-21T08:18:57.189Z,55.15
2022-11-21T08:21:27.772Z,56.32
2022-11-21T08:23:56.711Z,57.32
2022-11-21T08:26:25.406Z,58.33
2022-11-21T08:28:59.615Z,60.09
2022-11-21T08:31:29.024Z,63.26
2022-11-21T08:33:58.112Z,68.41
2022-11-21T08:36:26.588Z,69.18
2022-11-21T08:38:55.161Z,65.95
2022-11-21T08:41:42.402Z,61.90
2022-11-21T08:44:14.064Z,57.30
2022-11-21T08:46:43.963Z,55.07
2022-11-21T08:49:12.319Z,55.22
2022-11-21T08:51:40.720Z,56.34
2022-11-21T08:54:10.128Z,57.69
2022-11-21T08:56:38.807Z,58.47
2022-11-21T08:59:07.819Z,59.49
2022-11-21T09:01:36.546Z,64.04
2022-11-21T09:04:06.304Z,68.84
2022-11-21T09:06:35.411Z,65.59
2022-11-21T09:09:06.881Z,64.30
2022-11-21T09:11:42.404Z,61.14
2022-11-21T09:14:29.671Z,56.07
2022-11-21T09:17:16.734Z,54.44
2022-11-21T09:19:45.213Z,55.34
2022-11-21T09:22:13.505Z,56.46
2022-11-21T09:24:41.767Z,57.22
2022-11-21T09:27:10.569Z,58.41
2022-11-21T09:29:39.246Z,58.92
2022-11-21T09:32:07.744Z,62.64
2022-11-21T09:34:36.412Z,68.78
2022-11-21T09:37:04.675Z,65.67
2022-11-21T09:39:33.179Z,62.62
2022-11-21T09:42:26.219Z,60.51
2022-11-21T09:45:37.623Z,56.89
2022-11-21T09:48:13.848Z,55.71
2022-11-21T09:50:53.399Z,56.54
2022-11-21T09:53:32.554Z,58.47
2022-11-21T09:56:12.812Z,60.76
2022-11-21T09:58:52.264Z,62.58
2022-11-21T10:01:20.753Z,64.62
2022-11-21T10:03:52.797Z,63.51
2022-11-21T10:06:32.613Z,62.98
2022-11-21T10:09:17.871Z,62.42
2022-11-21T10:12:20.557Z,65.69
2022-11-21T10:15:39.758Z,62.85
2022-11-21T10:18:15.264Z,55.39
2022-11-21T10:21:22.005Z,54.81
2022-11-21T10:24:22.557Z,54.90
2022-11-21T10:26:55.116Z,55.90
2022-11-21T10:29:42.333Z,57.04
2022-11-21T10:32:24.500Z,57.65
2022-11-21T10:34:58.170Z,58.83
2022-11-21T10:37:38.434Z,59.93
2022-11-21T10:40:19.985Z,64.48
2022-11-21T10:43:41.565Z,67.63
2022-11-21T10:46:11.912Z,64.57
2022-11-21T10:48:41.567Z,60.81
2022-11-21T10:51:13.232Z,57.15
2022-11-21T10:54:04.609Z,55.49
2022-11-21T10:56:37.217Z,55.47
2022-11-21T10:59:19.275Z,57.02
2022-11-21T11:01:56.219Z,57.18
2022-11-21T11:04:28.237Z,58.07
2022-11-21T11:07:00.340Z,59.08
2022-11-21T11:09:32.853Z,59.84
2022-11-21T11:12:46.349Z,64.63
2022-11-21T11:15:24.346Z,67.44
2022-11-21T11:17:54.780Z,62.23
2022-11-21T11:20:34.522Z,60.01
2022-11-21T11:23:25.682Z,57.80
2022-11-21T11:25:55.649Z,55.80
2022-11-21T11:28:25.845Z,59.66
2022-11-21T11:30:55.901Z,58.34
2022-11-21T11:33:32.607Z,58.81
2022-11-21T11:36:13.659Z,59.77
2022-11-21T11:38:47.380Z,61.76
2022-11-21T11:42:02.328Z,67.04
2022-11-21T11:44:55.689Z,65.46
2022-11-21T11:47:30.944Z,59.46
2022-11-21T11:50:21.829Z,57.86
2022-11-21T11:53:00.961Z,60.08
2022-11-21T11:55:41.811Z,61.78
2022-11-21T11:59:04.726Z,63.30
2022-11-21T12:01:39.053Z,59.74
2022-11-21T12:04:17.586Z,58.90
2022-11-21T12:07:54.074Z,61.30
2022-11-21T12:10:05.275Z,62.93
2022-11-21T12:12:39.805Z,60.77
2022-11-21T12:15:49.852Z,59.23
2022-11-21T12:18:21.318Z,63.14
2022-11-21T12:21:14.657Z,63.32
2022-11-21T12:23:50.844Z,61.79
2022-11-21T12:26:50.640Z,61.25
2022-11-21T12:29:28.775Z,59.39
2022-11-21T12:32:30.596Z,60.41
2022-11-21T12:35:40.367Z,64.39
2022-11-21T12:38:34.044Z,63.34
2022-11-21T12:41:36.486Z,61.73
2022-11-21T12:44:39.915Z,61.83
2022-11-21T12:47:52.114Z,60.90
2022-11-21T12:50:47.119Z,60.84
2022-11-21T12:53:53.511Z,61.22
2022-11-21T12:56:38.624Z,61.67
2022-11-21T12:59:12.994Z,61.18
2022-11-21T13:01:53.795Z,59.72
2022-11-21T13:04:29.302Z,59.43
2022-11-21T13:06:58.917Z,61.01
2022-11-21T13:09:40.426Z,63.95
2022-11-21T13:12:22.612Z,64.61
2022-11-21T13:15:27.135Z,63.96
2022-11-21T13:18:45.386Z,64.77
2022-11-21T13:21:43.358Z,63.64
2022-11-21T13:24:13.283Z,61.47
2022-11-21T13:26:51.782Z,59.44
2022-11-21T13:29:20.367Z,61.35
2022-11-21T13:31:49.052Z,63.77
2022-11-21T13:34:38.462Z,63.34
2022-11-21T13:37:07.127Z,62.24
2022-11-21T13:39:37.519Z,61.97
2022-11-21T13:42:29.080Z,61.33
2022-11-21T13:44:58.468Z,61.87
2022-11-21T13:47:26.877Z,61.94
2022-11-21T13:50:04.536Z,62.19
2022-11-21T13:52:49.016Z,63.54
2022-11-21T13:55:32.857Z,64.60
2022-11-21T13:58:20.060Z,64.23
2022-11-21T14:01:07.646Z,63.54
2022-11-21T14:03:59.844Z,63.24
2022-11-21T14:06:34.239Z,61.96
2022-11-21T14:09:24.839Z,60.89
2022-11-21T14:11:58.964Z,60.64
2022-11-21T14:14:33.217Z,60.56
2022-11-21T14:17:24.055Z,59.34
2022-11-21T14:19:56.664Z,61.60
2022-11-21T14:22:38.723Z,64.13
2022-11-21T14:25:17.455Z,64.09
2022-11-21T14:27:50.674Z,61.67
2022-11-21T14:30:40.391Z,60.90
2022-11-21T14:33:29.425Z,61.18
2022-11-21T14:36:13.326Z,61.08
2022-11-21T14:39:07.676Z,60.38
2022-11-21T14:41:39.365Z,60.28
2022-11-21T14:44:07.901Z,60.46
2022-11-21T14:46:41.117Z,60.40
2022-11-21T14:49:20.364Z,60.88
2022-11-21T14:52:12.228Z,60.44
2022-11-21T14:55:14.932Z,60.19
2022-11-21T14:57:42.743Z,59.83
2022-11-21T15:00:36.207Z,62.74
2022-11-21T15:03:05.850Z,64.50
2022-11-21T15:11:17.519Z,62.60
2022-11-21T15:14:14.448Z,61.86
2022-11-21T15:16:40.373Z,58.83
2022-11-21T15:19:11.142Z,59.51
2022-11-21T15:21:46.497Z,62.98
2022-11-21T15:24:31.318Z,63.60
2022-11-21T15:27:01.325Z,61.72
2022-11-21T15:29:31.829Z,59.47
2022-11-21T15:32:07.903Z,60.12
2022-11-21T15:34:37.374Z,63.04
2022-11-21T15:37:16.045Z,63.00
2022-11-21T15:39:48.385Z,60.91
2022-11-21T15:42:33.251Z,59.79
2022-11-21T15:45:03.389Z,59.19
2022-11-21T15:47:31.959Z,61.32
2022-11-21T15:50:01.773Z,64.61
2022-11-21T15:52:31.196Z,64.23
2022-11-21T15:55:01.250Z,62.05
2022-11-21T15:57:33.559Z,59.04
2022-11-21T16:00:04.528Z,60.10
2022-11-21T16:02:40.520Z,63.51
2022-11-21T16:05:14.293Z,63.18
2022-11-21T16:07:43.471Z,61.74
2022-11-21T16:10:19.800Z,60.61
2022-11-21T16:12:52.049Z,59.79
2022-11-21T16:15:22.290Z,59.17
2022-11-21T16:17:52.578Z,58.95
2022-11-21T16:20:21.989Z,60.22
2022-11-21T16:22:51.410Z,64.36
2022-11-21T16:25:21.224Z,64.56
2022-11-21T16:27:50.255Z,62.76
2022-11-21T16:30:19.810Z,60.89
2022-11-21T16:32:49.367Z,59.89
2022-11-21T16:35:19.412Z,56.49
2022-11-21T16:37:49.383Z,55.55
2022-11-21T16:40:18.905Z,55.30
2022-11-21T16:42:49.917Z,58.42
2022-11-21T16:45:20.372Z,65.05
2022-11-21T16:47:50.495Z,66.28
2022-11-21T16:50:20.981Z,62.24
2022-11-21T16:52:50.972Z,57.80
2022-11-21T16:55:20.034Z,54.75
2022-11-21T16:57:49.957Z,56.17
2022-11-21T17:00:24.820Z,56.22
2022-11-21T17:02:55.454Z,58.69
2022-11-21T17:05:26.240Z,59.38
2022-11-21T17:07:57.673Z,64.05
2022-11-21T17:10:33.839Z,67.65
2022-11-21T17:13:05.420Z,63.42
2022-11-21T17:15:35.636Z,58.53
2022-11-21T17:18:05.946Z,54.46
2022-11-21T17:20:35.887Z,53.60
2022-11-21T17:23:06.195Z,56.34
2022-11-21T17:25:36.508Z,57.17
2022-11-21T17:28:07.519Z,57.81
2022-11-21T17:30:44.703Z,58.47
2022-11-21T17:33:14.213Z,59.94
2022-11-21T17:35:45.201Z,65.81
2022-11-21T17:38:14.974Z,68.39
2022-11-21T17:40:45.514Z,63.94
2022-11-21T17:43:15.474Z,60.43
2022-11-21T17:45:47.061Z,57.48
2022-11-21T17:48:17.555Z,54.85
2022-11-21T17:50:47.904Z,58.29
2022-11-21T17:53:18.353Z,57.52
2022-11-21T17:55:50.447Z,64.65
2022-11-21T17:58:19.790Z,66.85
2022-11-21T18:00:54.708Z,63.88
2022-11-21T18:03:25.809Z,59.27
2022-11-21T18:06:02.804Z,54.47
2022-11-21T18:08:35.838Z,54.18
2022-11-21T18:11:07.541Z,57.92
2022-11-21T18:13:38.138Z,63.30
2022-11-21T18:16:10.489Z,64.13
2022-11-21T18:18:40.303Z,61.18
2022-11-21T18:21:10.011Z,57.55
2022-11-21T18:23:39.522Z,54.79
2022-11-21T18:26:21.654Z,54.91
2022-11-21T18:29:07.291Z,55.21
2022-11-21T18:31:43.081Z,55.82
2022-11-21T18:34:14.405Z,57.06
2022-11-21T18:36:43.707Z,58.18
2022-11-21T18:39:15.161Z,59.26
2022-11-21T18:41:44.344Z,60.76
2022-11-21T18:44:20.167Z,64.83
2022-11-21T18:46:50.834Z,69.23
2022-11-21T18:49:19.863Z,66.20
2022-11-21T18:51:50.003Z,60.27
2022-11-21T18:54:19.550Z,55.22
2022-11-21T18:56:48.567Z,53.25
2022-11-21T18:59:17.796Z,56.07
2022-11-21T19:01:47.653Z,55.20
2022-11-21T19:04:18.233Z,55.86
2022-11-21T19:06:48.023Z,56.27
2022-11-21T19:09:18.032Z,56.77
2022-11-21T19:11:48.802Z,57.69
2022-11-21T19:14:19.060Z,58.43
2022-11-21T19:16:48.685Z,59.17
2022-11-21T19:19:35.575Z,60.00
2022-11-21T19:22:07.923Z,64.93
2022-11-21T19:24:37.193Z,69.11
2022-11-21T19:27:07.463Z,64.67
2022-11-21T19:29:36.805Z,59.66
2022-11-21T19:32:07.325Z,54.03
2022-11-21T19:34:36.859Z,53.12
2022-11-21T19:37:06.617Z,53.31
2022-11-21T19:39:35.324Z,54.39
2022-11-21T19:42:04.441Z,55.19
2022-11-21T19:44:33.943Z,55.99
2022-11-21T19:47:11.987Z,57.54
2022-11-21T19:49:41.600Z,59.29
2022-11-21T19:52:11.226Z,59.73
2022-11-21T19:54:40.961Z,60.52
2022-11-21T19:57:13.849Z,62.96
2022-11-21T19:59:46.846Z,69.49
2022-11-21T20:02:21.972Z,67.62
2022-11-21T20:04:54.850Z,64.64
2022-11-21T20:07:28.589Z,60.97
2022-11-21T20:09:59.492Z,57.25
2022-11-21T20:12:29.699Z,55.59
2022-11-21T20:14:59.560Z,56.08
2022-11-21T20:17:30.647Z,56.56
2022-11-21T20:20:01.000Z,57.33
2022-11-21T20:22:30.473Z,57.82
2022-11-21T20:24:59.669Z,58.66
2022-11-21T20:27:30.022Z,59.54
2022-11-21T20:29:59.197Z,59.97
2022-11-21T20:32:29.367Z,60.79
2022-11-21T20:34:59.124Z,64.06
2022-11-21T20:37:31.425Z,68.69
2022-11-21T20:40:01.010Z,68.50
2022-11-21T20:42:31.139Z,64.81
2022-11-21T20:47:50.432Z,60.43
2022-11-21T20:50:48.826Z,56.79
2022-11-21T20:56:04.161Z,55.92
2022-11-21T20:58:36.635Z,56.69
2022-11-21T21:01:07.447Z,57.66
2022-11-21T21:03:37.348Z,58.55
2022-11-21T21:06:09.084Z,59.86
2022-11-21T21:08:38.801Z,60.58
2022-11-21T21:11:44.515Z,63.68
2022-11-21T21:14:09.004Z,68.05
2022-11-21T21:16:39.769Z,65.39
2022-11-21T21:19:09.863Z,64.78
2022-11-21T21:21:42.865Z,62.28
2022-11-21T21:24:14.416Z,58.41
2022-11-21T21:26:47.546Z,54.97
2022-11-21T21:29:20.104Z,53.81
2022-11-21T21:31:52.380Z,55.89
2022-11-21T21:34:23.110Z,56.64
2022-11-21T21:36:54.241Z,58.58
2022-11-21T21:39:28.730Z,63.01
2022-11-21T21:42:00.839Z,66.35
2022-11-21T21:44:33.858Z,66.00
2022-11-21T21:47:05.302Z,63.88
2022-11-21T21:49:43.898Z,61.83
2022-11-21T21:52:21.749Z,60.34
2022-11-21T21:54:52.137Z,54.98
2022-11-21T21:57:25.058Z,53.25
2022-11-21T21:59:56.234Z,53.46
2022-11-21T22:02:25.631Z,55.49
2022-11-21T22:04:54.542Z,60.39
2022-11-21T22:07:23.210Z,60.89
2022-11-21T22:09:51.683Z,62.49
2022-11-21T22:12:20.276Z,65.74
2022-11-21T22:14:49.580Z,64.82
2022-11-21T22:17:18.034Z,63.67
2022-11-21T22:22:42.859Z,62.28
2022-11-21T22:25:11.362Z,56.33
2022-11-21T22:27:39.997Z,53.79
2022-11-21T22:30:11.928Z,54.17
2022-11-21T22:32:40.607Z,54.71
2022-11-21T22:35:09.368Z,57.47
2022-11-21T22:37:38.647Z,59.01
2022-11-21T22:40:07.961Z,62.76
2022-11-21T22:42:36.460Z,68.02
2022-11-21T22:45:05.454Z,67.67
2022-11-21T22:47:33.825Z,63.16
2022-11-21T22:50:05.358Z,56.69
2022-11-21T22:52:33.990Z,53.53
2022-11-21T22:55:02.454Z,53.50
2022-11-21T22:57:33.888Z,54.67
2022-11-21T23:00:02.660Z,56.77
2022-11-21T23:02:33.422Z,58.60
2022-11-21T23:05:02.415Z,59.72
2022-11-21T23:07:32.378Z,62.05
2022-11-21T23:10:01.235Z,68.08
2022-11-21T23:12:30.891Z,69.25
2022-11-21T23:14:59.922Z,64.08
2022-11-21T23:17:28.132Z,58.62
2022-11-21T23:19:56.677Z,55.10
2022-11-21T23:22:25.271Z,55.12
2022-11-21T23:24:53.533Z,55.62
2022-11-21T23:27:21.771Z,60.28
2022-11-21T23:29:50.096Z,62.70
2022-11-21T23:32:18.716Z,65.81
2022-11-21T23:34:47.566Z,67.62
2022-11-21T23:37:15.947Z,64.05
2022-11-21T23:39:44.120Z,56.85
2022-11-21T23:42:12.363Z,54.38
2022-11-21T23:44:40.633Z,54.16
2022-11-21T23:47:08.968Z,56.69
2022-11-21T23:49:37.235Z,59.20
2022-11-21T23:52:05.816Z,62.16
2022-11-21T23:54:34.589Z,64.44
2022-11-21T23:57:02.885Z,62.62
2022-11-21T23:59:31.638Z,62.38
